createdAt,value
2022-10-01T00:02:07.286Z,1.77
2022-10-01T00:04:37.899Z,1.23
2022-10-01T00:07:10.374Z,1.30
2022-10-01T00:09:38.243Z,1.60
2022-10-01T00:12:07.178Z,1.70
2022-10-01T00:14:35.749Z,1.57
2022-10-01T00:17:03.998Z,1.60
2022-10-01T00:19:30.994Z,1.47
2022-10-01T00:21:58.477Z,1.90
2022-10-01T00:24:27.074Z,2.00
2022-10-01T00:26:54.620Z,1.97
2022-10-01T00:29:23.114Z,2.00
2022-10-01T00:31:50.077Z,2.20
2022-10-01T00:34:17.714Z,2.40
2022-10-01T00:36:44.597Z,2.60
2022-10-01T00:39:12.829Z,2.27
2022-10-01T00:41:41.816Z,2.80
2022-10-01T00:44:38.197Z,2.30
2022-10-01T00:47:23.458Z,2.23
2022-10-01T00:49:59.180Z,2.23
2022-10-01T00:52:31.784Z,1.70
2022-10-01T00:55:06.562Z,1.40
2022-10-01T00:57:35.969Z,1.40
2022-10-01T01:00:08.887Z,1.23
2022-10-01T01:02:36.182Z,1.30
2022-10-01T01:05:04.254Z,1.50
2022-10-01T01:07:33.935Z,1.33
2022-10-01T01:10:04.011Z,1.60
2022-10-01T01:12:51.501Z,1.47
2022-10-01T01:15:24.042Z,1.10
2022-10-01T01:18:17.602Z,1.00
2022-10-01T01:21:18.682Z,1.60
2022-10-01T01:23:59.779Z,1.07
2022-10-01T01:27:16.261Z,1.30
2022-10-01T01:29:55.385Z,1.53
2022-10-01T01:32:53.016Z,1.67
2022-10-01T01:35:32.263Z,1.60
2022-10-01T01:38:08.422Z,1.70
2022-10-01T01:40:39.208Z,1.43
2022-10-01T01:43:19.549Z,1.50
2022-10-01T01:45:50.377Z,1.90
2022-10-01T01:48:18.366Z,1.63
2022-10-01T01:51:16.907Z,2.00
2022-10-01T01:53:44.824Z,1.87
2022-10-01T01:56:12.553Z,1.83
2022-10-01T01:58:39.725Z,1.93
2022-10-01T02:01:07.683Z,1.90
2022-10-01T02:03:35.627Z,1.80
2022-10-01T02:06:21.297Z,1.80
2022-10-01T02:09:00.702Z,1.93
2022-10-01T02:11:33.231Z,1.83
2022-10-01T02:14:20.621Z,1.70
2022-10-01T02:16:59.545Z,1.77
2022-10-01T02:19:56.166Z,1.73
2022-10-01T02:22:32.957Z,1.90
2022-10-01T02:25:04.163Z,1.70
2022-10-01T02:27:39.473Z,1.90
2022-10-01T02:30:09.742Z,2.10
2022-10-01T02:32:40.695Z,1.83
2022-10-01T02:35:12.073Z,1.83
2022-10-01T02:37:41.380Z,1.90
2022-10-01T02:40:15.870Z,1.80
2022-10-01T02:42:51.484Z,1.60
2022-10-01T02:45:23.631Z,1.43
2022-10-01T02:48:00.159Z,1.30
2022-10-01T02:50:33.365Z,1.40
2022-10-01T02:53:06.120Z,1.23
2022-10-01T02:55:37.474Z,1.33
2022-10-01T02:58:06.786Z,1.20
2022-10-01T03:00:33.874Z,1.00
2022-10-01T03:03:13.752Z,0.90
2022-10-01T03:05:40.760Z,0.93
2022-10-01T03:08:07.938Z,0.77
2022-10-01T03:10:35.585Z,0.90
2022-10-01T03:13:03.657Z,1.10
2022-10-01T03:15:31.214Z,1.03
2022-10-01T03:17:58.089Z,0.80
2022-10-01T03:20:26.599Z,1.10
2022-10-01T03:22:53.490Z,1.13
2022-10-01T03:25:21.120Z,1.30
2022-10-01T03:27:48.057Z,1.50
2022-10-01T03:30:16.793Z,1.30
2022-10-01T03:32:45.082Z,1.40
2022-10-01T03:35:13.079Z,1.50
2022-10-01T03:37:41.617Z,1.37
2022-10-01T03:40:10.567Z,1.30
2022-10-01T03:42:38.198Z,1.57
2022-10-01T03:45:06.850Z,1.53
2022-10-01T03:47:34.201Z,1.67
2022-10-01T03:50:01.074Z,1.77
2022-10-01T03:52:28.678Z,2.20
2022-10-01T03:54:56.242Z,2.30
2022-10-01T03:57:24.844Z,2.50
2022-10-01T03:59:52.357Z,2.40
2022-10-01T04:02:19.955Z,2.23
2022-10-01T04:04:46.878Z,2.00
2022-10-01T04:07:14.908Z,2.03
2022-10-01T04:09:42.533Z,2.50
2022-10-01T04:12:10.310Z,2.30
2022-10-01T04:14:38.581Z,2.13
2022-10-01T04:17:06.081Z,1.87
2022-10-01T04:19:33.645Z,2.30
2022-10-01T04:22:01.169Z,2.23
2022-10-01T04:24:28.106Z,2.20
2022-10-01T04:26:54.965Z,2.27
2022-10-01T04:29:21.833Z,1.83
2022-10-01T04:31:49.343Z,2.10
2022-10-01T04:34:17.889Z,2.20
2022-10-01T04:36:44.849Z,2.60
2022-10-01T04:39:14.100Z,2.80
2022-10-01T04:41:41.158Z,2.80
2022-10-01T04:44:08.758Z,3.30
2022-10-01T04:46:36.969Z,3.23
2022-10-01T04:49:04.666Z,4.67
2022-10-01T04:51:33.184Z,4.20
2022-10-01T04:54:01.511Z,3.97
2022-10-01T04:56:28.378Z,3.43
2022-10-01T04:58:56.717Z,2.90
2022-10-01T05:01:25.152Z,2.13
2022-10-01T05:03:53.534Z,3.20
2022-10-01T05:06:21.758Z,2.50
2022-10-01T05:08:52.128Z,2.60
2022-10-01T05:11:20.462Z,2.40
2022-10-01T05:13:48.817Z,2.07
2022-10-01T05:16:16.481Z,2.10
2022-10-01T05:18:44.255Z,2.23
2022-10-01T05:21:12.470Z,2.40
2022-10-01T05:23:40.018Z,2.60
2022-10-01T05:26:09.419Z,2.77
2022-10-01T05:28:43.074Z,2.50
2022-10-01T05:31:12.183Z,2.33
2022-10-01T05:33:40.857Z,2.53
2022-10-01T05:36:09.268Z,2.50
2022-10-01T05:38:37.283Z,2.60
2022-10-01T05:41:05.305Z,2.67
2022-10-01T05:43:32.182Z,2.77
2022-10-01T05:46:05.408Z,2.40
2022-10-01T05:48:36.998Z,3.03
2022-10-01T05:51:08.177Z,2.70
2022-10-01T05:53:38.501Z,2.80
2022-10-01T05:56:06.982Z,2.83
2022-10-01T05:58:34.634Z,2.40
2022-10-01T06:01:04.916Z,2.63
2022-10-01T06:03:33.131Z,2.33
2022-10-01T06:06:00.930Z,2.20
2022-10-01T06:08:28.656Z,2.80
2022-10-01T06:11:01.998Z,2.27
2022-10-01T06:13:31.939Z,2.87
2022-10-01T06:16:00.644Z,2.80
2022-10-01T06:18:27.639Z,2.23
2022-10-01T06:20:55.292Z,2.77
2022-10-01T06:23:23.554Z,2.63
2022-10-01T06:25:51.878Z,2.20
2022-10-01T06:28:20.403Z,2.37
2022-10-01T06:30:48.319Z,4.27
2022-10-01T06:33:17.579Z,3.17
2022-10-01T06:35:51.029Z,2.20
2022-10-01T06:38:21.678Z,1.80
2022-10-01T06:40:59.757Z,1.73
2022-10-01T06:43:31.005Z,1.90
2022-10-01T06:46:02.902Z,1.90
2022-10-01T06:48:32.452Z,1.50
2022-10-01T06:51:00.066Z,2.27
2022-10-01T06:53:28.869Z,1.70
2022-10-01T06:55:57.549Z,2.40
2022-10-01T06:58:28.068Z,2.67
2022-10-01T07:01:01.425Z,6.67
2022-10-01T07:03:31.273Z,2.20
2022-10-01T07:06:05.133Z,2.93
2022-10-01T07:08:33.559Z,2.03
2022-10-01T07:11:02.890Z,2.10
2022-10-01T07:13:31.499Z,2.20
2022-10-01T07:15:59.085Z,2.37
2022-10-01T07:18:27.154Z,2.53
2022-10-01T07:20:57.438Z,2.00
2022-10-01T07:23:25.794Z,2.23
2022-10-01T07:25:53.369Z,2.20
2022-10-01T07:28:25.652Z,2.50
2022-10-01T07:31:06.734Z,1.90
2022-10-01T07:33:34.986Z,1.87
2022-10-01T07:36:04.685Z,2.27
2022-10-01T07:38:33.595Z,2.27
2022-10-01T07:41:03.468Z,2.20
2022-10-01T07:43:32.628Z,2.47
2022-10-01T07:46:01.986Z,2.30
2022-10-01T07:48:31.084Z,2.70
2022-10-01T07:50:59.970Z,2.50
2022-10-01T07:53:28.745Z,2.60
2022-10-01T07:55:56.818Z,2.40
2022-10-01T07:58:26.584Z,2.63
2022-10-01T08:00:58.449Z,2.60
2022-10-01T08:03:26.371Z,3.30
2022-10-01T08:05:54.635Z,3.57
2022-10-01T08:08:22.231Z,4.20
2022-10-01T08:10:50.731Z,3.00
2022-10-01T08:13:20.455Z,3.63
2022-10-01T08:15:53.477Z,2.97
2022-10-01T08:18:23.155Z,2.83
2022-10-01T08:20:51.336Z,2.37
2022-10-01T08:23:20.635Z,1.83
2022-10-01T08:25:48.890Z,2.53
2022-10-01T08:28:18.329Z,1.93
2022-10-01T08:30:47.415Z,4.20
2022-10-01T08:33:16.629Z,1.60
2022-10-01T08:35:45.188Z,1.43
2022-10-01T08:38:15.035Z,1.40
2022-10-01T08:40:47.325Z,2.20
2022-10-01T08:43:16.174Z,3.70
2022-10-01T08:45:55.362Z,2.80
2022-10-01T08:48:58.685Z,2.00
2022-10-01T08:51:48.758Z,2.70
2022-10-01T08:54:54.290Z,2.00
2022-10-01T08:57:25.830Z,2.13
2022-10-01T08:59:59.619Z,2.97
2022-10-01T09:02:33.816Z,2.03
2022-10-01T09:05:10.978Z,5.77
2022-10-01T09:07:54.263Z,1.13
2022-10-01T09:10:43.702Z,1.27
2022-10-01T09:13:32.681Z,1.60
2022-10-01T09:16:19.146Z,1.17
2022-10-01T09:19:20.568Z,11.23
2022-10-01T09:21:58.104Z,4.03
2022-10-01T09:24:44.453Z,5.00
2022-10-01T09:27:24.518Z,1.60
2022-10-01T09:29:57.660Z,3.60
2022-10-01T09:32:31.935Z,2.50
2022-10-01T09:35:10.819Z,3.17
2022-10-01T09:37:55.963Z,2.57
2022-10-01T09:40:47.634Z,3.33
2022-10-01T09:43:19.957Z,5.90
2022-10-01T09:45:48.316Z,4.37
2022-10-01T09:48:20.557Z,3.40
2022-10-01T09:50:58.257Z,3.23
2022-10-01T09:53:34.894Z,2.30
2022-10-01T09:56:11.947Z,2.80
2022-10-01T09:58:47.025Z,2.70
2022-10-01T10:01:22.931Z,2.30
2022-10-01T10:03:56.848Z,2.43
2022-10-01T10:06:29.926Z,2.33
2022-10-01T10:08:59.596Z,2.00
2022-10-01T10:11:30.343Z,2.50
2022-10-01T10:14:03.553Z,2.40
2022-10-01T10:16:37.230Z,3.20
2022-10-01T10:19:15.416Z,3.37
2022-10-01T10:22:00.693Z,4.30
2022-10-01T10:24:34.726Z,2.97
2022-10-01T10:27:06.511Z,2.60
2022-10-01T10:29:35.842Z,2.80
2022-10-01T10:32:26.852Z,2.47
2022-10-01T10:35:02.942Z,1.90
2022-10-01T10:37:38.161Z,2.20
2022-10-01T10:40:08.220Z,1.97
2022-10-01T10:42:38.876Z,1.80
2022-10-01T10:45:17.478Z,2.00
2022-10-01T10:47:48.139Z,1.87
2022-10-01T10:50:27.142Z,2.20
2022-10-01T10:52:56.417Z,1.77
2022-10-01T10:55:31.156Z,2.00
2022-10-01T10:58:12.222Z,2.23
2022-10-01T11:00:52.615Z,1.80
2022-10-01T11:03:23.983Z,2.00
2022-10-01T11:05:56.478Z,2.17
2022-10-01T11:08:27.808Z,2.47
2022-10-01T11:11:00.819Z,2.27
2022-10-01T11:13:32.769Z,2.20
2022-10-01T11:16:37.427Z,2.60
2022-10-01T11:19:21.433Z,2.13
2022-10-01T11:22:10.847Z,2.30
2022-10-01T11:25:10.000Z,2.20
2022-10-01T11:27:45.681Z,1.93
2022-10-01T11:30:31.535Z,1.97
2022-10-01T11:33:18.513Z,2.40
2022-10-01T11:36:14.942Z,2.73
2022-10-01T11:39:01.023Z,2.40
2022-10-01T11:41:48.978Z,2.40
2022-10-01T11:44:42.250Z,2.87
2022-10-01T11:47:23.137Z,2.23
2022-10-01T11:50:10.746Z,2.07
2022-10-01T11:52:52.804Z,2.00
2022-10-01T11:56:04.128Z,2.20
2022-10-01T11:58:51.036Z,2.30
2022-10-01T12:01:46.296Z,1.90
2022-10-01T12:04:35.877Z,2.50
2022-10-01T12:07:26.854Z,1.87
2022-10-01T12:09:55.111Z,2.00
2022-10-01T12:12:34.149Z,1.90
2022-10-01T12:15:19.733Z,1.73
2022-10-01T12:18:06.474Z,2.20
2022-10-01T12:20:40.802Z,2.17
2022-10-01T12:23:15.112Z,1.90
2022-10-01T12:26:06.582Z,2.50
2022-10-01T12:29:00.293Z,2.03
2022-10-01T12:31:30.176Z,1.53
2022-10-01T12:34:17.222Z,2.10
2022-10-01T12:37:07.443Z,2.00
2022-10-01T12:39:41.307Z,2.23
2022-10-01T12:42:11.598Z,1.77
2022-10-01T12:44:57.314Z,1.87
2022-10-01T12:47:35.160Z,2.00
2022-10-01T12:50:27.925Z,1.80
2022-10-01T12:53:20.634Z,1.50
2022-10-01T12:56:00.385Z,1.33
2022-10-01T12:58:49.288Z,1.70
2022-10-01T13:01:44.283Z,1.80
2022-10-01T13:04:37.073Z,1.40
2022-10-01T13:07:34.471Z,1.80
2022-10-01T13:10:50.092Z,1.77
2022-10-01T13:13:25.757Z,1.60
2022-10-01T13:16:24.362Z,1.80
2022-10-01T13:19:07.869Z,1.73
2022-10-01T13:21:58.365Z,1.67
2022-10-01T13:24:53.185Z,1.57
2022-10-01T13:27:24.354Z,1.47
2022-10-01T13:30:01.824Z,1.80
2022-10-01T13:32:57.748Z,2.10
2022-10-01T13:35:36.499Z,2.30
2022-10-01T13:38:29.173Z,1.93
2022-10-01T13:41:04.657Z,2.90
2022-10-01T13:43:35.322Z,2.57
2022-10-01T13:46:09.138Z,2.63
2022-10-01T13:48:44.707Z,2.97
2022-10-01T13:51:13.910Z,2.73
2022-10-01T13:53:42.118Z,3.00
2022-10-01T13:56:14.324Z,2.77
2022-10-01T13:58:43.588Z,2.80
2022-10-01T14:01:41.530Z,3.20
2022-10-01T14:04:39.562Z,3.47
2022-10-01T14:07:17.656Z,3.93
2022-10-01T14:09:49.512Z,4.87
2022-10-01T14:12:42.729Z,4.10
2022-10-01T14:15:34.978Z,4.33
2022-10-01T14:18:16.509Z,4.17
2022-10-01T14:21:09.595Z,4.13
2022-10-01T14:23:57.362Z,4.97
2022-10-01T14:26:58.498Z,3.83
2022-10-01T14:29:42.054Z,3.90
2022-10-01T14:32:36.445Z,4.87
2022-10-01T14:35:28.581Z,3.73
2022-10-01T14:38:03.275Z,4.47
2022-10-01T14:40:43.435Z,4.30
2022-10-01T14:43:27.466Z,4.87
2022-10-01T14:46:02.650Z,4.50
2022-10-01T14:48:33.569Z,4.37
2022-10-01T14:51:04.499Z,4.03
2022-10-01T14:53:36.793Z,3.90
2022-10-01T14:56:12.555Z,4.93
2022-10-01T14:59:04.122Z,4.83
2022-10-01T15:01:31.928Z,3.77
2022-10-01T15:04:00.337Z,4.20
2022-10-01T15:06:29.993Z,4.00
2022-10-01T15:09:14.426Z,4.37
2022-10-01T15:11:44.780Z,3.90
2022-10-01T15:14:21.200Z,4.07
2022-10-01T15:16:50.094Z,4.10
2022-10-01T15:19:21.011Z,4.70
2022-10-01T15:21:54.353Z,5.20
2022-10-01T15:24:45.495Z,4.20
2022-10-01T15:27:17.881Z,4.30
2022-10-01T15:29:46.939Z,4.83
2022-10-01T15:32:18.941Z,4.30
2022-10-01T15:34:52.785Z,4.43
2022-10-01T15:37:31.830Z,4.40
2022-10-01T15:40:01.501Z,4.67
2022-10-01T15:42:33.142Z,4.37
2022-10-01T15:45:07.433Z,4.63
2022-10-01T15:47:50.581Z,4.60
2022-10-01T15:50:24.918Z,4.63
2022-10-01T15:53:03.362Z,4.57
2022-10-01T15:55:35.521Z,5.00
2022-10-01T15:58:39.118Z,4.90
2022-10-01T16:01:11.057Z,4.07
2022-10-01T16:04:01.142Z,4.53
2022-10-01T16:06:37.367Z,4.73
2022-10-01T16:09:22.704Z,4.30
2022-10-01T16:11:59.350Z,4.93
2022-10-01T16:14:28.282Z,4.93
2022-10-01T16:17:34.039Z,5.03
2022-10-01T16:20:38.130Z,5.23
2022-10-01T16:23:34.842Z,5.00
2022-10-01T16:26:06.110Z,5.10
2022-10-01T16:28:34.771Z,4.67
2022-10-01T16:31:04.455Z,4.40
2022-10-01T16:33:32.145Z,5.00
2022-10-01T16:36:11.001Z,5.10
2022-10-01T16:38:38.795Z,4.97
2022-10-01T16:41:05.893Z,5.57
2022-10-01T16:43:34.586Z,5.13
2022-10-01T16:46:03.671Z,4.70
2022-10-01T16:48:31.216Z,5.03
2022-10-01T16:50:59.272Z,5.00
2022-10-01T16:53:27.404Z,5.80
2022-10-01T16:55:58.122Z,4.10
2022-10-01T16:58:27.509Z,4.13
2022-10-01T17:00:55.127Z,4.57
2022-10-01T17:03:25.018Z,4.80
2022-10-01T17:05:53.358Z,4.50
2022-10-01T17:08:21.685Z,5.00
2022-10-01T17:10:58.390Z,4.43
2022-10-01T17:13:33.188Z,5.50
2022-10-01T17:16:04.946Z,4.30
2022-10-01T17:18:35.629Z,4.67
2022-10-01T17:21:04.817Z,5.03
2022-10-01T17:23:34.864Z,4.97
2022-10-01T17:26:06.229Z,5.17
2022-10-01T17:28:33.985Z,4.97
2022-10-01T17:31:02.419Z,5.20
2022-10-01T17:33:30.582Z,5.07
2022-10-01T17:35:58.887Z,5.17
2022-10-01T17:38:25.838Z,4.77
2022-10-01T17:40:56.458Z,4.60
2022-10-01T17:43:24.757Z,5.13
2022-10-01T17:45:59.503Z,5.10
2022-10-01T17:48:28.575Z,5.20
2022-10-01T17:51:00.277Z,5.00
2022-10-01T17:53:32.895Z,5.20
2022-10-01T17:56:07.523Z,5.67
2022-10-01T17:58:38.010Z,5.17
2022-10-01T18:01:13.451Z,5.23
2022-10-01T18:03:42.187Z,4.80
2022-10-01T18:06:14.284Z,4.93
2022-10-01T18:08:58.420Z,5.17
2022-10-01T18:11:27.876Z,5.60
2022-10-01T18:13:57.509Z,5.07
2022-10-01T18:16:26.802Z,5.50
2022-10-01T18:21:47.942Z,5.40
2022-10-01T18:24:16.324Z,5.10
2022-10-01T18:26:45.789Z,4.47
2022-10-01T18:29:19.377Z,4.83
2022-10-01T18:31:52.330Z,5.43
2022-10-01T18:34:47.502Z,5.23
2022-10-01T18:37:40.340Z,5.47
2022-10-01T18:40:11.254Z,5.47
2022-10-01T18:42:59.333Z,5.57
2022-10-01T18:45:34.507Z,5.70
2022-10-01T18:48:08.174Z,5.00
2022-10-01T18:50:43.376Z,5.40
2022-10-01T18:53:39.095Z,6.00
2022-10-01T18:56:35.842Z,5.47
2022-10-01T18:59:29.381Z,5.93
2022-10-01T19:02:22.040Z,5.60
2022-10-01T19:05:20.319Z,5.50
2022-10-01T19:08:24.532Z,6.23
2022-10-01T19:11:34.054Z,5.77
2022-10-01T19:14:19.374Z,5.73
2022-10-01T19:17:27.863Z,5.90
2022-10-01T19:20:25.301Z,5.50
2022-10-01T19:22:59.538Z,6.33
2022-10-01T19:25:57.789Z,5.83
2022-10-01T19:28:48.527Z,6.40
2022-10-01T19:31:39.626Z,6.03
2022-10-01T19:34:21.878Z,6.17
2022-10-01T19:37:22.401Z,6.27
2022-10-01T19:39:52.094Z,6.67
2022-10-01T19:42:32.146Z,6.57
2022-10-01T19:45:04.889Z,6.97
2022-10-01T19:47:43.857Z,6.67
2022-10-01T19:50:21.144Z,6.30
2022-10-01T19:52:52.545Z,6.90
2022-10-01T19:55:23.317Z,6.77
2022-10-01T19:57:52.730Z,6.47
2022-10-01T20:00:23.266Z,7.10
2022-10-01T20:03:04.047Z,6.73
2022-10-01T20:05:32.026Z,6.87
2022-10-01T20:08:29.011Z,7.03
2022-10-01T20:11:14.047Z,7.40
2022-10-01T20:13:49.450Z,7.47
2022-10-01T20:16:40.760Z,7.63
2022-10-01T20:19:32.306Z,6.83
2022-10-01T20:22:14.829Z,8.17
2022-10-01T20:24:58.948Z,7.00
2022-10-01T20:27:54.947Z,7.70
2022-10-01T20:30:23.975Z,7.83
2022-10-01T20:33:05.176Z,7.30
2022-10-01T20:35:42.447Z,7.63
2022-10-01T20:38:28.986Z,8.20
2022-10-01T20:41:06.314Z,7.50
2022-10-01T20:43:48.161Z,7.37
2022-10-01T20:46:35.317Z,8.10
2022-10-01T20:49:41.384Z,8.03
2022-10-01T20:52:33.426Z,7.93
2022-10-01T20:55:13.800Z,8.07
2022-10-01T20:57:54.649Z,8.40
2022-10-01T21:00:25.134Z,8.40
2022-10-01T21:03:02.031Z,8.80
2022-10-01T21:05:37.342Z,8.50
2022-10-01T21:08:32.651Z,9.43
2022-10-01T21:11:07.025Z,8.30
2022-10-01T21:13:54.834Z,9.37
2022-10-01T21:16:45.548Z,8.70
2022-10-01T21:19:50.277Z,8.37
2022-10-01T21:22:43.889Z,8.43
2022-10-01T21:25:20.371Z,8.17
2022-10-01T21:28:00.093Z,8.17
2022-10-01T21:30:44.622Z,8.53
2022-10-01T21:33:15.194Z,9.80
2022-10-01T21:35:52.745Z,9.73
2022-10-01T21:38:43.975Z,9.20
2022-10-01T21:41:21.428Z,9.80
2022-10-01T21:44:11.184Z,9.87
2022-10-01T21:46:54.813Z,9.40
2022-10-01T21:49:47.598Z,9.10
2022-10-01T21:52:56.658Z,10.30
2022-10-01T21:55:59.126Z,8.87
2022-10-01T21:58:29.451Z,9.17
2022-10-01T22:01:35.386Z,8.43
2022-10-01T22:04:17.882Z,9.83
2022-10-01T22:07:05.492Z,8.67
2022-10-01T22:10:03.642Z,8.40
2022-10-01T22:12:37.806Z,8.53
2022-10-01T22:15:33.978Z,8.33
2022-10-01T22:18:05.459Z,8.17
2022-10-01T22:20:35.016Z,8.20
2022-10-01T22:23:12.318Z,8.50
2022-10-01T22:26:03.605Z,8.53
2022-10-01T22:28:38.889Z,8.87
2022-10-01T22:31:14.375Z,8.10
2022-10-01T22:33:51.186Z,8.30
2022-10-01T22:36:24.966Z,8.50
2022-10-01T22:38:56.877Z,7.53
2022-10-01T22:41:57.546Z,8.53
2022-10-01T22:44:27.962Z,7.43
2022-10-01T22:47:26.990Z,8.07
2022-10-01T22:50:30.325Z,7.90
2022-10-01T22:53:14.009Z,8.03
2022-10-01T22:55:52.642Z,8.30
2022-10-01T22:58:32.305Z,7.60
2022-10-01T23:01:39.801Z,7.90
2022-10-01T23:04:23.465Z,6.93
2022-10-01T23:07:05.054Z,8.07
2022-10-01T23:09:55.418Z,7.47
2022-10-01T23:13:01.538Z,7.53
2022-10-01T23:15:45.149Z,7.43
2022-10-01T23:18:42.716Z,7.97
2022-10-01T23:21:32.619Z,7.60
2022-10-01T23:24:25.740Z,7.87
2022-10-01T23:27:38.208Z,7.97
2022-10-01T23:30:14.381Z,8.33
2022-10-01T23:32:48.751Z,7.10
2022-10-01T23:35:35.137Z,7.13
2022-10-01T23:38:36.034Z,7.20
2022-10-01T23:41:14.589Z,7.17
2022-10-01T23:43:48.534Z,7.93
2022-10-01T23:46:25.526Z,7.60
2022-10-01T23:49:12.670Z,8.43
2022-10-01T23:51:43.628Z,7.13
2022-10-01T23:54:26.518Z,6.77
2022-10-01T23:57:10.144Z,7.33
2022-10-01T23:59:40.786Z,7.53
